首页
METAR-TAF:

METAR-TAF

机场 :

Trenton-Mercer Airport

特伦顿, 新泽西州, 美国

纬度: 40-16-35N, 经度: 074-48-59W, 海拔: 64米

当前天气观测

该预报发布于16分钟前的15:53 UTC
风速5节,风向
温度 5°C
湿度 81%
气压 1027 hPa
能見度: 16.1公里
多云层高于700英尺
阴天层高于1200英尺

METAR: KTTN 131553Z 10005KT 10SM BKN007 OVC012 05/02 A3033 RMK AO2 SLP267 T00500022

时间: 11:09 (16:09 UTC)

预报

该预报发布于56分钟前的15:13 UTC
预报有效从13日的 15点(UTC)到 14日的 12点(UTC)
风速4节,风向
能見度: 10公里
多云层高于1500英尺
阴天层高于2000英尺
短暂存在
从 13日的 16点(UTC)到 13日的 18点(UTC)
能見度: 9.7公里
阴天层高于800英尺
小阵雨, 轻雾
从 13日的 1800点(UTC)
风速5节,风向
能見度: 6.4公里
阴天层高于800英尺
小雨, 轻雾
从 14日的 0000点(UTC)
风速6节,风向
能見度: 3.2公里
阴天层高于300英尺
雨, 轻雾
从 14日的 0600点(UTC)
风速5节,风向东北
能見度: 3.2公里
阴天层高于300英尺
大雨, 轻雾

TAF: KTTN 131513Z 1315/1412 08004KT P6SM BKN015 OVC020 TEMPO 1316/1318 6SM -SHRA BR OVC008 FM131800 10005KT 4SM -RA BR OVC008 FM140000 08006KT 2SM RA BR OVC003 FM140600 05005KT 2SM +RA BR OVC003

超过4000个机场的气象观测和天气预报(METAR&TAF报告)。

可查询的气象台以黄色和红色小点在地图上表示。

将鼠标移到小点上方,可查看气象台名称。

然后点击查看天气观测和预报。

如需切换地图:点击带黑十字的绿色按钮放大地图;点击带横线的绿色按钮缩小地图;或者点击绿色箭头查看邻近地区的地图。


METAR-TAF: